sensor_id;sensor_type;location;lat;lon;timestamp;P1;durP1;ratioP1;P2;durP2;ratioP2
549;SDS011;20066;48.764;9.176;2023-04-01T00:02:07;1.45;;;0.63;;
549;SDS011;20066;48.764;9.176;2023-04-01T00:04:40;2.50;;;0.82;;
549;SDS011;20066;48.764;9.176;2023-04-01T00:07:10;4.95;;;0.80;;
549;SDS011;20066;48.764;9.176;2023-04-01T00:09:38;3.47;;;1.00;;
549;SDS011;20066;48.764;9.176;2023-04-01T00:12:06;2.63;;;0.90;;
549;SDS011;20066;48.764;9.176;2023-04-01T00:14:35;1.75;;;0.80;;
549;SDS011;20066;48.764;9.176;2023-04-01T00:17:03;3.78;;;0.90;;
549;SDS011;20066;48.764;9.176;2023-04-01T00:19:30;5.85;;;1.00;;
549;SDS011;20066;48.764;9.176;2023-04-01T00:21:59;9.45;;;0.95;;
549;SDS011;20066;48.764;9.176;2023-04-01T00:24:29;5.88;;;1.25;;
549;SDS011;20066;48.764;9.176;2023-04-01T00:26:57;3.13;;;0.88;;
549;SDS011;20066;48.764;9.176;2023-04-01T00:29:25;3.72;;;0.90;;
549;SDS011;20066;48.764;9.176;2023-04-01T00:31:56;3.00;;;0.88;;
549;SDS011;20066;48.764;9.176;2023-04-01T00:34:25;2.25;;;0.95;;
549;SDS011;20066;48.764;9.176;2023-04-01T00:36:52;7.80;;;1.27;;
549;SDS011;20066;48.764;9.176;2023-04-01T00:39:20;3.88;;;1.00;;
549;SDS011;20066;48.764;9.176;2023-04-01T00:41:48;2.72;;;0.73;;
549;SDS011;20066;48.764;9.176;2023-04-01T00:44:18;3.45;;;0.85;;
549;SDS011;20066;48.764;9.176;2023-04-01T00:46:47;3.03;;;0.88;;
549;SDS011;20066;48.764;9.176;2023-04-01T00:49:17;4.60;;;1.00;;
549;SDS011;20066;48.764;9.176;2023-04-01T00:51:50;4.55;;;0.88;;
549;SDS011;20066;48.764;9.176;2023-04-01T00:54:20;3.90;;;1.20;;
549;SDS011;20066;48.764;9.176;2023-04-01T00:56:52;3.03;;;1.00;;
549;SDS011;20066;48.764;9.176;2023-04-01T00:59:25;4.18;;;1.10;;
549;SDS011;20066;48.764;9.176;2023-04-01T01:01:55;2.25;;;0.82;;
549;SDS011;20066;48.764;9.176;2023-04-01T01:04:24;6.88;;;1.05;;
549;SDS011;20066;48.764;9.176;2023-04-01T01:07:00;6.65;;;0.80;;
549;SDS011;20066;48.764;9.176;2023-04-01T01:09:39;1.85;;;0.70;;
549;SDS011;20066;48.764;9.176;2023-04-01T01:12:13;4.90;;;0.90;;
549;SDS011;20066;48.764;9.176;2023-04-01T01:14:45;3.38;;;0.80;;
549;SDS011;20066;48.764;9.176;2023-04-01T01:17:24;5.10;;;1.20;;
549;SDS011;20066;48.764;9.176;2023-04-01T01:20:14;6.75;;;1.08;;
549;SDS011;20066;48.764;9.176;2023-04-01T01:22:55;2.92;;;0.70;;
549;SDS011;20066;48.764;9.176;2023-04-01T01:25:44;7.32;;;1.08;;
549;SDS011;20066;48.764;9.176;2023-04-01T01:28:23;5.68;;;0.90;;
549;SDS011;20066;48.764;9.176;2023-04-01T01:31:03;5.35;;;1.27;;
549;SDS011;20066;48.764;9.176;2023-04-01T01:33:42;2.92;;;0.80;;
549;SDS011;20066;48.764;9.176;2023-04-01T01:36:26;2.85;;;0.80;;
549;SDS011;20066;48.764;9.176;2023-04-01T01:39:01;1.60;;;0.60;;
549;SDS011;20066;48.764;9.176;2023-04-01T01:41:33;1.95;;;0.80;;
549;SDS011;20066;48.764;9.176;2023-04-01T01:44:05;5.28;;;1.00;;
549;SDS011;20066;48.764;9.176;2023-04-01T01:46:35;3.63;;;1.23;;
549;SDS011;20066;48.764;9.176;2023-04-01T01:49:05;3.15;;;0.63;;
549;SDS011;20066;48.764;9.176;2023-04-01T01:51:40;2.58;;;0.80;;
549;SDS011;20066;48.764;9.176;2023-04-01T01:54:11;2.28;;;0.70;;
549;SDS011;20066;48.764;9.176;2023-04-01T01:56:39;2.78;;;0.85;;
549;SDS011;20066;48.764;9.176;2023-04-01T01:59:10;3.55;;;0.82;;
549;SDS011;20066;48.764;9.176;2023-04-01T02:01:41;4.72;;;0.73;;
549;SDS011;20066;48.764;9.176;2023-04-01T02:04:13;1.27;;;0.57;;
549;SDS011;20066;48.764;9.176;2023-04-01T02:06:44;2.88;;;0.73;;
549;SDS011;20066;48.764;9.176;2023-04-01T02:09:18;3.17;;;0.90;;
549;SDS011;20066;48.764;9.176;2023-04-01T02:11:47;3.35;;;0.93;;
549;SDS011;20066;48.764;9.176;2023-04-01T02:14:19;2.00;;;0.80;;
549;SDS011;20066;48.764;9.176;2023-04-01T02:16:49;3.13;;;0.80;;
549;SDS011;20066;48.764;9.176;2023-04-01T02:19:20;5.40;;;0.70;;
549;SDS011;20066;48.764;9.176;2023-04-01T02:21:55;1.95;;;0.90;;
549;SDS011;20066;48.764;9.176;2023-04-01T02:24:27;5.85;;;0.63;;
549;SDS011;20066;48.764;9.176;2023-04-01T02:26:58;3.05;;;0.70;;
549;SDS011;20066;48.764;9.176;2023-04-01T02:29:26;1.58;;;0.55;;
549;SDS011;20066;48.764;9.176;2023-04-01T02:31:54;1.70;;;0.60;;
549;SDS011;20066;48.764;9.176;2023-04-01T02:34:23;4.05;;;0.70;;
549;SDS011;20066;48.764;9.176;2023-04-01T02:36:51;2.03;;;0.60;;
549;SDS011;20066;48.764;9.176;2023-04-01T02:39:22;2.80;;;0.60;;
549;SDS011;20066;48.764;9.176;2023-04-01T02:41:52;1.00;;;0.45;;
549;SDS011;20066;48.764;9.176;2023-04-01T02:44:20;2.08;;;0.50;;
549;SDS011;20066;48.764;9.176;2023-04-01T02:46:48;2.20;;;0.52;;
549;SDS011;20066;48.764;9.176;2023-04-01T02:49:16;1.70;;;0.43;;
549;SDS011;20066;48.764;9.176;2023-04-01T02:51:44;1.83;;;0.57;;
549;SDS011;20066;48.764;9.176;2023-04-01T02:54:13;1.42;;;0.50;;
549;SDS011;20066;48.764;9.176;2023-04-01T02:56:41;2.03;;;0.65;;
549;SDS011;20066;48.764;9.176;2023-04-01T02:59:08;2.47;;;0.60;;
549;SDS011;20066;48.764;9.176;2023-04-01T03:01:36;2.53;;;0.55;;
549;SDS011;20066;48.764;9.176;2023-04-01T03:04:04;1.10;;;0.40;;
549;SDS011;20066;48.764;9.176;2023-04-01T03:06:32;1.60;;;0.50;;
549;SDS011;20066;48.764;9.176;2023-04-01T03:09:00;2.60;;;0.57;;
549;SDS011;20066;48.764;9.176;2023-04-01T03:11:29;1.00;;;0.45;;
549;SDS011;20066;48.764;9.176;2023-04-01T03:13:56;4.93;;;0.60;;
549;SDS011;20066;48.764;9.176;2023-04-01T03:16:24;1.83;;;0.50;;
549;SDS011;20066;48.764;9.176;2023-04-01T03:18:52;2.75;;;0.77;;
549;SDS011;20066;48.764;9.176;2023-04-01T03:21:22;3.17;;;0.55;;
549;SDS011;20066;48.764;9.176;2023-04-01T03:23:51;2.25;;;0.50;;
549;SDS011;20066;48.764;9.176;2023-04-01T03:26:19;1.20;;;0.50;;
549;SDS011;20066;48.764;9.176;2023-04-01T03:28:49;4.80;;;0.50;;
549;SDS011;20066;48.764;9.176;2023-04-01T03:31:16;1.35;;;0.50;;
549;SDS011;20066;48.764;9.176;2023-04-01T03:33:46;1.88;;;0.50;;
549;SDS011;20066;48.764;9.176;2023-04-01T03:36:14;1.55;;;0.50;;
549;SDS011;20066;48.764;9.176;2023-04-01T03:38:42;3.05;;;0.60;;
549;SDS011;20066;48.764;9.176;2023-04-01T03:41:11;3.50;;;0.60;;
549;SDS011;20066;48.764;9.176;2023-04-01T03:43:39;1.20;;;0.50;;
549;SDS011;20066;48.764;9.176;2023-04-01T03:46:08;2.17;;;0.50;;
549;SDS011;20066;48.764;9.176;2023-04-01T03:48:36;5.75;;;0.80;;
549;SDS011;20066;48.764;9.176;2023-04-01T03:51:06;1.70;;;0.60;;
549;SDS011;20066;48.764;9.176;2023-04-01T03:53:34;2.17;;;0.57;;
549;SDS011;20066;48.764;9.176;2023-04-01T03:56:03;1.63;;;0.90;;
549;SDS011;20066;48.764;9.176;2023-04-01T03:58:31;1.95;;;0.70;;
549;SDS011;20066;48.764;9.176;2023-04-01T04:00:59;2.67;;;0.60;;
549;SDS011;20066;48.764;9.176;2023-04-01T04:03:28;2.05;;;0.50;;
549;SDS011;20066;48.764;9.176;2023-04-01T04:05:56;2.83;;;0.75;;
549;SDS011;20066;48.764;9.176;2023-04-01T04:08:24;1.90;;;0.75;;
549;SDS011;20066;48.764;9.176;2023-04-01T04:10:56;1.50;;;0.60;;
549;SDS011;20066;48.764;9.176;2023-04-01T04:13:24;1.70;;;0.55;;
549;SDS011;20066;48.764;9.176;2023-04-01T04:15:51;7.35;;;0.68;;
549;SDS011;20066;48.764;9.176;2023-04-01T04:18:21;1.55;;;0.63;;
549;SDS011;20066;48.764;9.176;2023-04-01T04:20:50;1.45;;;0.55;;
549;SDS011;20066;48.764;9.176;2023-04-01T04:23:17;1.05;;;0.50;;
549;SDS011;20066;48.764;9.176;2023-04-01T04:25:53;1.00;;;0.52;;
549;SDS011;20066;48.764;9.176;2023-04-01T04:28:22;1.60;;;0.40;;
549;SDS011;20066;48.764;9.176;2023-04-01T04:30:50;3.58;;;0.60;;
549;SDS011;20066;48.764;9.176;2023-04-01T04:33:18;1.67;;;0.50;;
549;SDS011;20066;48.764;9.176;2023-04-01T04:35:46;1.05;;;0.47;;
549;SDS011;20066;48.764;9.176;2023-04-01T04:38:15;2.15;;;0.50;;
549;SDS011;20066;48.764;9.176;2023-04-01T04:40:43;1.95;;;0.50;;
549;SDS011;20066;48.764;9.176;2023-04-01T04:43:13;1.80;;;0.52;;
549;SDS011;20066;48.764;9.176;2023-04-01T04:45:43;1.70;;;0.80;;
549;SDS011;20066;48.764;9.176;2023-04-01T04:48:12;2.53;;;0.70;;
549;SDS011;20066;48.764;9.176;2023-04-01T04:50:46;3.67;;;0.70;;
549;SDS011;20066;48.764;9.176;2023-04-01T04:53:17;2.65;;;0.93;;
549;SDS011;20066;48.764;9.176;2023-04-01T04:55:46;2.80;;;0.60;;
549;SDS011;20066;48.764;9.176;2023-04-01T04:58:18;5.35;;;0.90;;
549;SDS011;20066;48.764;9.176;2023-04-01T05:00:47;1.25;;;0.60;;
549;SDS011;20066;48.764;9.176;2023-04-01T05:03:14;1.80;;;0.60;;
549;SDS011;20066;48.764;9.176;2023-04-01T05:05:47;2.85;;;0.60;;
549;SDS011;20066;48.764;9.176;2023-04-01T05:08:18;2.75;;;0.65;;
549;SDS011;20066;48.764;9.176;2023-04-01T05:10:46;0.90;;;0.50;;
549;SDS011;20066;48.764;9.176;2023-04-01T05:13:14;2.30;;;0.80;;
549;SDS011;20066;48.764;9.176;2023-04-01T05:15:42;3.75;;;0.90;;
549;SDS011;20066;48.764;9.176;2023-04-01T05:18:09;5.45;;;0.80;;
549;SDS011;20066;48.764;9.176;2023-04-01T05:20:37;2.28;;;0.90;;
549;SDS011;20066;48.764;9.176;2023-04-01T05:23:05;2.60;;;0.90;;
549;SDS011;20066;48.764;9.176;2023-04-01T05:25:36;1.98;;;0.60;;
549;SDS011;20066;48.764;9.176;2023-04-01T05:28:06;2.90;;;0.90;;
549;SDS011;20066;48.764;9.176;2023-04-01T05:30:39;2.50;;;0.93;;
549;SDS011;20066;48.764;9.176;2023-04-01T05:33:07;6.47;;;1.00;;
549;SDS011;20066;48.764;9.176;2023-04-01T05:35:35;4.53;;;1.05;;
549;SDS011;20066;48.764;9.176;2023-04-01T05:38:03;1.98;;;0.80;;
549;SDS011;20066;48.764;9.176;2023-04-01T05:40:34;2.80;;;0.65;;
549;SDS011;20066;48.764;9.176;2023-04-01T05:43:04;2.88;;;0.90;;
549;SDS011;20066;48.764;9.176;2023-04-01T05:45:31;1.90;;;0.40;;
549;SDS011;20066;48.764;9.176;2023-04-01T05:47:59;3.25;;;0.75;;
549;SDS011;20066;48.764;9.176;2023-04-01T05:50:27;1.33;;;0.60;;
549;SDS011;20066;48.764;9.176;2023-04-01T05:52:55;2.60;;;0.73;;
549;SDS011;20066;48.764;9.176;2023-04-01T05:55:23;3.95;;;0.70;;
549;SDS011;20066;48.764;9.176;2023-04-01T05:57:52;1.45;;;0.60;;
549;SDS011;20066;48.764;9.176;2023-04-01T06:00:19;3.30;;;1.08;;
549;SDS011;20066;48.764;9.176;2023-04-01T06:02:48;1.10;;;0.60;;
549;SDS011;20066;48.764;9.176;2023-04-01T06:05:17;1.73;;;0.63;;
549;SDS011;20066;48.764;9.176;2023-04-01T06:07:46;3.17;;;0.80;;
549;SDS011;20066;48.764;9.176;2023-04-01T06:10:16;2.15;;;1.00;;
549;SDS011;20066;48.764;9.176;2023-04-01T06:12:56;5.63;;;0.73;;
549;SDS011;20066;48.764;9.176;2023-04-01T06:15:35;7.13;;;0.75;;
549;SDS011;20066;48.764;9.176;2023-04-01T06:24:22;4.65;;;0.80;;
549;SDS011;20066;48.764;9.176;2023-04-01T06:27:03;5.22;;;0.90;;
549;SDS011;20066;48.764;9.176;2023-04-01T06:29:43;3.05;;;1.60;;
549;SDS011;20066;48.764;9.176;2023-04-01T06:32:41;3.08;;;0.80;;
549;SDS011;20066;48.764;9.176;2023-04-01T06:35:31;4.10;;;0.80;;
549;SDS011;20066;48.764;9.176;2023-04-01T06:38:19;4.15;;;0.80;;
549;SDS011;20066;48.764;9.176;2023-04-01T06:43:59;2.30;;;0.70;;
549;SDS011;20066;48.764;9.176;2023-04-01T06:47:01;4.40;;;0.93;;
549;SDS011;20066;48.764;9.176;2023-04-01T06:49:41;2.60;;;0.70;;
549;SDS011;20066;48.764;9.176;2023-04-01T06:52:21;1.25;;;0.55;;
549;SDS011;20066;48.764;9.176;2023-04-01T06:54:55;4.93;;;0.80;;
549;SDS011;20066;48.764;9.176;2023-04-01T06:57:29;2.72;;;0.47;;
549;SDS011;20066;48.764;9.176;2023-04-01T07:00:03;3.60;;;0.60;;
549;SDS011;20066;48.764;9.176;2023-04-01T07:02:41;1.67;;;0.60;;
549;SDS011;20066;48.764;9.176;2023-04-01T07:05:16;1.50;;;0.55;;
549;SDS011;20066;48.764;9.176;2023-04-01T07:07:48;2.58;;;0.75;;
549;SDS011;20066;48.764;9.176;2023-04-01T07:10:20;2.65;;;0.63;;
549;SDS011;20066;48.764;9.176;2023-04-01T07:13:04;4.07;;;0.80;;
549;SDS011;20066;48.764;9.176;2023-04-01T07:15:36;2.83;;;1.08;;
549;SDS011;20066;48.764;9.176;2023-04-01T07:18:11;2.00;;;0.68;;
549;SDS011;20066;48.764;9.176;2023-04-01T07:20:43;3.15;;;0.70;;
549;SDS011;20066;48.764;9.176;2023-04-01T07:23:15;2.45;;;0.73;;
549;SDS011;20066;48.764;9.176;2023-04-01T07:25:51;3.85;;;0.85;;
549;SDS011;20066;48.764;9.176;2023-04-01T07:28:23;3.35;;;0.82;;
549;SDS011;20066;48.764;9.176;2023-04-01T07:31:04;4.35;;;0.85;;
549;SDS011;20066;48.764;9.176;2023-04-01T07:33:52;2.78;;;0.50;;
549;SDS011;20066;48.764;9.176;2023-04-01T07:36:30;2.45;;;0.70;;
549;SDS011;20066;48.764;9.176;2023-04-01T07:39:06;2.10;;;0.75;;
549;SDS011;20066;48.764;9.176;2023-04-01T07:41:45;19.42;;;2.70;;
549;SDS011;20066;48.764;9.176;2023-04-01T07:44:21;9.35;;;2.13;;
549;SDS011;20066;48.764;9.176;2023-04-01T07:46:59;4.28;;;1.60;;
549;SDS011;20066;48.764;9.176;2023-04-01T07:49:42;3.75;;;1.35;;
549;SDS011;20066;48.764;9.176;2023-04-01T07:52:16;1.27;;;0.60;;
549;SDS011;20066;48.764;9.176;2023-04-01T07:54:53;4.10;;;1.20;;
549;SDS011;20066;48.764;9.176;2023-04-01T07:57:27;4.80;;;1.92;;
549;SDS011;20066;48.764;9.176;2023-04-01T08:00:06;2.30;;;1.30;;
549;SDS011;20066;48.764;9.176;2023-04-01T08:02:53;5.32;;;1.13;;
549;SDS011;20066;48.764;9.176;2023-04-01T08:05:39;1.50;;;0.70;;
549;SDS011;20066;48.764;9.176;2023-04-01T08:08:15;5.50;;;0.77;;
549;SDS011;20066;48.764;9.176;2023-04-01T08:10:47;1.80;;;0.70;;
549;SDS011;20066;48.764;9.176;2023-04-01T08:13:22;5.53;;;0.75;;
549;SDS011;20066;48.764;9.176;2023-04-01T08:16:03;3.83;;;0.70;;
549;SDS011;20066;48.764;9.176;2023-04-01T08:18:41;1.10;;;0.50;;
549;SDS011;20066;48.764;9.176;2023-04-01T08:21:16;1.92;;;0.70;;
549;SDS011;20066;48.764;9.176;2023-04-01T08:23:49;0.95;;;0.47;;
549;SDS011;20066;48.764;9.176;2023-04-01T08:26:23;3.28;;;0.50;;
549;SDS011;20066;48.764;9.176;2023-04-01T08:28:59;0.90;;;0.50;;
549;SDS011;20066;48.764;9.176;2023-04-01T08:31:35;0.88;;;0.50;;
549;SDS011;20066;48.764;9.176;2023-04-01T08:34:10;3.50;;;0.80;;
549;SDS011;20066;48.764;9.176;2023-04-01T08:36:52;1.40;;;0.60;;
549;SDS011;20066;48.764;9.176;2023-04-01T08:39:28;1.85;;;0.57;;
549;SDS011;20066;48.764;9.176;2023-04-01T08:42:05;3.70;;;0.60;;
549;SDS011;20066;48.764;9.176;2023-04-01T08:45:02;1.00;;;0.50;;
549;SDS011;20066;48.764;9.176;2023-04-01T08:53:46;4.55;;;0.77;;
549;SDS011;20066;48.764;9.176;2023-04-01T08:56:25;2.15;;;0.65;;
549;SDS011;20066;48.764;9.176;2023-04-01T08:59:08;1.30;;;0.60;;
549;SDS011;20066;48.764;9.176;2023-04-01T09:01:48;2.55;;;0.70;;
549;SDS011;20066;48.764;9.176;2023-04-01T09:04:34;2.95;;;0.90;;
549;SDS011;20066;48.764;9.176;2023-04-01T09:07:19;3.13;;;0.50;;
549;SDS011;20066;48.764;9.176;2023-04-01T09:10:11;2.25;;;0.63;;
549;SDS011;20066;48.764;9.176;2023-04-01T09:13:16;1.40;;;0.60;;
549;SDS011;20066;48.764;9.176;2023-04-01T09:16:10;2.00;;;0.70;;
549;SDS011;20066;48.764;9.176;2023-04-01T09:18:50;1.95;;;0.40;;
549;SDS011;20066;48.764;9.176;2023-04-01T09:21:35;1.30;;;0.60;;
549;SDS011;20066;48.764;9.176;2023-04-01T09:24:58;1.55;;;0.50;;
549;SDS011;20066;48.764;9.176;2023-04-01T09:27:43;4.15;;;0.57;;
549;SDS011;20066;48.764;9.176;2023-04-01T09:30:28;1.25;;;0.50;;
549;SDS011;20066;48.764;9.176;2023-04-01T09:36:23;0.90;;;0.40;;
549;SDS011;20066;48.764;9.176;2023-04-01T09:39:03;2.00;;;0.50;;
549;SDS011;20066;48.764;9.176;2023-04-01T09:41:47;0.90;;;0.45;;
549;SDS011;20066;48.764;9.176;2023-04-01T09:44:31;1.83;;;0.60;;
549;SDS011;20066;48.764;9.176;2023-04-01T09:47:06;1.75;;;0.50;;
549;SDS011;20066;48.764;9.176;2023-04-01T09:49:50;1.10;;;0.50;;
549;SDS011;20066;48.764;9.176;2023-04-01T09:52:32;2.83;;;0.55;;
549;SDS011;20066;48.764;9.176;2023-04-01T09:55:18;1.38;;;0.60;;
549;SDS011;20066;48.764;9.176;2023-04-01T10:01:26;1.20;;;0.50;;
549;SDS011;20066;48.764;9.176;2023-04-01T10:04:33;0.90;;;0.40;;
549;SDS011;20066;48.764;9.176;2023-04-01T10:07:43;1.00;;;0.50;;
549;SDS011;20066;48.764;9.176;2023-04-01T10:16:41;1.55;;;0.50;;
549;SDS011;20066;48.764;9.176;2023-04-01T10:22:50;1.88;;;0.45;;
549;SDS011;20066;48.764;9.176;2023-04-01T10:25:50;0.80;;;0.40;;
549;SDS011;20066;48.764;9.176;2023-04-01T10:32:05;0.70;;;0.40;;
549;SDS011;20066;48.764;9.176;2023-04-01T10:38:25;1.27;;;0.40;;
549;SDS011;20066;48.764;9.176;2023-04-01T10:41:17;1.13;;;0.50;;
549;SDS011;20066;48.764;9.176;2023-04-01T10:47:15;1.03;;;0.50;;
549;SDS011;20066;48.764;9.176;2023-04-01T10:50:16;0.70;;;0.40;;
549;SDS011;20066;48.764;9.176;2023-04-01T10:56:29;0.70;;;0.40;;
549;SDS011;20066;48.764;9.176;2023-04-01T11:27:19;0.90;;;0.40;;
549;SDS011;20066;48.764;9.176;2023-04-01T11:30:01;0.60;;;0.30;;
549;SDS011;20066;48.764;9.176;2023-04-01T11:32:48;0.80;;;0.40;;
549;SDS011;20066;48.764;9.176;2023-04-01T11:35:25;0.97;;;0.43;;
549;SDS011;20066;48.764;9.176;2023-04-01T11:38:07;0.70;;;0.40;;
549;SDS011;20066;48.764;9.176;2023-04-01T11:40:47;0.80;;;0.40;;
549;SDS011;20066;48.764;9.176;2023-04-01T11:43:25;1.33;;;0.50;;
549;SDS011;20066;48.764;9.176;2023-04-01T11:46:03;0.90;;;0.40;;
549;SDS011;20066;48.764;9.176;2023-04-01T11:48:40;1.00;;;0.40;;
549;SDS011;20066;48.764;9.176;2023-04-01T11:51:29;0.70;;;0.40;;
549;SDS011;20066;48.764;9.176;2023-04-01T11:54:15;0.70;;;0.40;;
549;SDS011;20066;48.764;9.176;2023-04-01T11:56:57;2.97;;;0.63;;
549;SDS011;20066;48.764;9.176;2023-04-01T11:59:42;0.70;;;0.40;;
549;SDS011;20066;48.764;9.176;2023-04-01T12:02:23;3.00;;;0.50;;
549;SDS011;20066;48.764;9.176;2023-04-01T12:05:02;0.70;;;0.40;;
549;SDS011;20066;48.764;9.176;2023-04-01T12:10:33;2.80;;;0.60;;
549;SDS011;20066;48.764;9.176;2023-04-01T12:13:07;3.42;;;0.70;;
549;SDS011;20066;48.764;9.176;2023-04-01T12:15:53;1.70;;;0.50;;
549;SDS011;20066;48.764;9.176;2023-04-01T12:18:33;1.07;;;0.50;;
549;SDS011;20066;48.764;9.176;2023-04-01T12:21:09;0.70;;;0.37;;
549;SDS011;20066;48.764;9.176;2023-04-01T12:26:53;1.25;;;0.65;;
549;SDS011;20066;48.764;9.176;2023-04-01T12:29:38;0.80;;;0.50;;
549;SDS011;20066;48.764;9.176;2023-04-01T12:32:25;0.93;;;0.47;;
549;SDS011;20066;48.764;9.176;2023-04-01T12:35:08;1.10;;;0.50;;
549;SDS011;20066;48.764;9.176;2023-04-01T12:37:50;1.10;;;0.63;;
549;SDS011;20066;48.764;9.176;2023-04-01T12:40:40;0.80;;;0.50;;
549;SDS011;20066;48.764;9.176;2023-04-01T12:43:23;0.80;;;0.50;;
549;SDS011;20066;48.764;9.176;2023-04-01T12:46:05;0.70;;;0.40;;
549;SDS011;20066;48.764;9.176;2023-04-01T12:52:01;0.87;;;0.40;;
549;SDS011;20066;48.764;9.176;2023-04-01T12:54:48;1.50;;;0.40;;
549;SDS011;20066;48.764;9.176;2023-04-01T13:00:40;1.13;;;0.50;;
549;SDS011;20066;48.764;9.176;2023-04-01T13:03:22;0.60;;;0.30;;
549;SDS011;20066;48.764;9.176;2023-04-01T13:06:09;0.83;;;0.50;;
549;SDS011;20066;48.764;9.176;2023-04-01T13:08:52;1.20;;;0.40;;
549;SDS011;20066;48.764;9.176;2023-04-01T13:11:32;0.90;;;0.50;;
549;SDS011;20066;48.764;9.176;2023-04-01T13:17:22;1.03;;;0.40;;
549;SDS011;20066;48.764;9.176;2023-04-01T13:19:56;1.10;;;0.40;;
549;SDS011;20066;48.764;9.176;2023-04-01T13:22:34;0.70;;;0.37;;
549;SDS011;20066;48.764;9.176;2023-04-01T13:25:15;0.87;;;0.43;;
549;SDS011;20066;48.764;9.176;2023-04-01T13:27:55;0.90;;;0.40;;
549;SDS011;20066;48.764;9.176;2023-04-01T13:30:28;1.10;;;0.40;;
549;SDS011;20066;48.764;9.176;2023-04-01T13:33:04;0.70;;;0.40;;
549;SDS011;20066;48.764;9.176;2023-04-01T13:35:43;1.17;;;0.50;;
549;SDS011;20066;48.764;9.176;2023-04-01T13:38:30;0.70;;;0.40;;
549;SDS011;20066;48.764;9.176;2023-04-01T13:41:18;1.00;;;0.40;;
549;SDS011;20066;48.764;9.176;2023-04-01T13:43:57;0.90;;;0.50;;
549;SDS011;20066;48.764;9.176;2023-04-01T13:46:35;0.80;;;0.40;;
549;SDS011;20066;48.764;9.176;2023-04-01T13:49:23;0.70;;;0.40;;
549;SDS011;20066;48.764;9.176;2023-04-01T13:52:19;1.57;;;0.50;;
549;SDS011;20066;48.764;9.176;2023-04-01T13:55:10;1.17;;;0.57;;
549;SDS011;20066;48.764;9.176;2023-04-01T13:57:51;2.30;;;0.50;;
549;SDS011;20066;48.764;9.176;2023-04-01T14:00:32;1.10;;;0.50;;
549;SDS011;20066;48.764;9.176;2023-04-01T14:03:13;0.80;;;0.40;;
549;SDS011;20066;48.764;9.176;2023-04-01T14:06:14;0.90;;;0.40;;
549;SDS011;20066;48.764;9.176;2023-04-01T14:08:52;1.00;;;0.50;;
549;SDS011;20066;48.764;9.176;2023-04-01T14:11:33;1.20;;;0.40;;
549;SDS011;20066;48.764;9.176;2023-04-01T14:14:10;1.23;;;0.50;;
549;SDS011;20066;48.764;9.176;2023-04-01T14:16:53;2.97;;;0.90;;
549;SDS011;20066;48.764;9.176;2023-04-01T14:19:32;0.90;;;0.40;;
549;SDS011;20066;48.764;9.176;2023-04-01T14:22:28;0.80;;;0.40;;
549;SDS011;20066;48.764;9.176;2023-04-01T14:25:10;1.40;;;0.70;;
549;SDS011;20066;48.764;9.176;2023-04-01T14:27:56;1.13;;;0.50;;
549;SDS011;20066;48.764;9.176;2023-04-01T14:30:40;1.20;;;0.50;;
549;SDS011;20066;48.764;9.176;2023-04-01T14:33:28;0.87;;;0.40;;
549;SDS011;20066;48.764;9.176;2023-04-01T14:36:05;0.70;;;0.40;;
549;SDS011;20066;48.764;9.176;2023-04-01T14:38:57;0.80;;;0.40;;
549;SDS011;20066;48.764;9.176;2023-04-01T14:41:40;1.30;;;0.53;;
549;SDS011;20066;48.764;9.176;2023-04-01T14:44:18;1.33;;;0.40;;
549;SDS011;20066;48.764;9.176;2023-04-01T14:47:13;1.60;;;1.00;;
549;SDS011;20066;48.764;9.176;2023-04-01T14:49:52;2.30;;;1.00;;
549;SDS011;20066;48.764;9.176;2023-04-01T14:52:30;1.73;;;0.60;;
549;SDS011;20066;48.764;9.176;2023-04-01T14:55:02;1.43;;;0.60;;
549;SDS011;20066;48.764;9.176;2023-04-01T14:57:57;0.70;;;0.40;;
549;SDS011;20066;48.764;9.176;2023-04-01T15:00:27;0.80;;;0.43;;
549;SDS011;20066;48.764;9.176;2023-04-01T15:03:14;1.00;;;0.50;;
549;SDS011;20066;48.764;9.176;2023-04-01T15:05:49;0.80;;;0.40;;
549;SDS011;20066;48.764;9.176;2023-04-01T15:08:21;1.50;;;0.40;;
549;SDS011;20066;48.764;9.176;2023-04-01T15:16:55;0.80;;;0.40;;
549;SDS011;20066;48.764;9.176;2023-04-01T15:19:38;0.90;;;0.50;;
549;SDS011;20066;48.764;9.176;2023-04-01T15:22:27;1.47;;;0.80;;
549;SDS011;20066;48.764;9.176;2023-04-01T15:25:16;1.00;;;0.50;;
549;SDS011;20066;48.764;9.176;2023-04-01T15:27:57;1.30;;;0.40;;
549;SDS011;20066;48.764;9.176;2023-04-01T15:30:32;1.43;;;0.50;;
549;SDS011;20066;48.764;9.176;2023-04-01T15:33:11;1.47;;;0.50;;
549;SDS011;20066;48.764;9.176;2023-04-01T15:35:50;1.20;;;0.40;;
549;SDS011;20066;48.764;9.176;2023-04-01T15:38:27;0.80;;;0.40;;
549;SDS011;20066;48.764;9.176;2023-04-01T15:41:03;0.70;;;0.40;;
549;SDS011;20066;48.764;9.176;2023-04-01T15:43:41;1.27;;;0.53;;
549;SDS011;20066;48.764;9.176;2023-04-01T15:46:19;1.63;;;0.50;;
549;SDS011;20066;48.764;9.176;2023-04-01T15:49:09;0.90;;;0.57;;
549;SDS011;20066;48.764;9.176;2023-04-01T15:54:47;1.07;;;0.57;;
549;SDS011;20066;48.764;9.176;2023-04-01T15:57:25;2.70;;;0.40;;
549;SDS011;20066;48.764;9.176;2023-04-01T16:00:06;1.10;;;0.50;;
549;SDS011;20066;48.764;9.176;2023-04-01T16:02:42;0.70;;;0.40;;
549;SDS011;20066;48.764;9.176;2023-04-01T16:11:23;1.17;;;0.50;;
549;SDS011;20066;48.764;9.176;2023-04-01T16:13:59;1.10;;;0.50;;
549;SDS011;20066;48.764;9.176;2023-04-01T16:16:43;0.80;;;0.50;;
549;SDS011;20066;48.764;9.176;2023-04-01T16:19:25;3.53;;;0.70;;
549;SDS011;20066;48.764;9.176;2023-04-01T16:22:00;1.52;;;0.50;;
549;SDS011;20066;48.764;9.176;2023-04-01T16:24:33;1.70;;;0.47;;
549;SDS011;20066;48.764;9.176;2023-04-01T16:27:07;1.70;;;0.80;;
549;SDS011;20066;48.764;9.176;2023-04-01T16:29:43;0.87;;;0.50;;
549;SDS011;20066;48.764;9.176;2023-04-01T16:32:23;1.10;;;0.47;;
549;SDS011;20066;48.764;9.176;2023-04-01T16:35:10;1.13;;;0.40;;
549;SDS011;20066;48.764;9.176;2023-04-01T16:37:49;1.55;;;0.70;;
549;SDS011;20066;48.764;9.176;2023-04-01T16:40:23;1.20;;;0.60;;
549;SDS011;20066;48.764;9.176;2023-04-01T16:43:06;1.50;;;0.70;;
549;SDS011;20066;48.764;9.176;2023-04-01T16:45:41;3.90;;;0.70;;
549;SDS011;20066;48.764;9.176;2023-04-01T16:48:17;1.30;;;0.68;;
549;SDS011;20066;48.764;9.176;2023-04-01T16:50:51;1.17;;;0.70;;
549;SDS011;20066;48.764;9.176;2023-04-01T16:53:25;1.23;;;0.60;;
549;SDS011;20066;48.764;9.176;2023-04-01T16:56:04;1.02;;;0.50;;
549;SDS011;20066;48.764;9.176;2023-04-01T16:58:39;1.00;;;0.60;;
549;SDS011;20066;48.764;9.176;2023-04-01T17:01:12;1.52;;;0.70;;
549;SDS011;20066;48.764;9.176;2023-04-01T17:03:45;1.42;;;0.70;;
549;SDS011;20066;48.764;9.176;2023-04-01T17:06:22;1.58;;;0.73;;
549;SDS011;20066;48.764;9.176;2023-04-01T17:09:02;1.43;;;0.60;;
549;SDS011;20066;48.764;9.176;2023-04-01T17:11:41;1.92;;;0.90;;
549;SDS011;20066;48.764;9.176;2023-04-01T17:14:17;3.10;;;0.80;;
549;SDS011;20066;48.764;9.176;2023-04-01T17:16:54;3.60;;;0.90;;
549;SDS011;20066;48.764;9.176;2023-04-01T17:19:45;1.67;;;0.75;;
549;SDS011;20066;48.764;9.176;2023-04-01T17:22:28;1.58;;;0.85;;
549;SDS011;20066;48.764;9.176;2023-04-01T17:25:10;1.55;;;0.90;;
549;SDS011;20066;48.764;9.176;2023-04-01T17:27:57;2.78;;;1.30;;
549;SDS011;20066;48.764;9.176;2023-04-01T17:30:30;2.17;;;0.77;;
549;SDS011;20066;48.764;9.176;2023-04-01T17:33:10;5.03;;;1.10;;
549;SDS011;20066;48.764;9.176;2023-04-01T17:36:08;1.58;;;0.77;;
549;SDS011;20066;48.764;9.176;2023-04-01T17:38:54;3.17;;;0.82;;
549;SDS011;20066;48.764;9.176;2023-04-01T17:41:32;4.05;;;1.30;;
549;SDS011;20066;48.764;9.176;2023-04-01T17:44:21;2.90;;;1.33;;
549;SDS011;20066;48.764;9.176;2023-04-01T17:47:01;5.95;;;1.10;;
549;SDS011;20066;48.764;9.176;2023-04-01T17:49:41;3.80;;;1.00;;
549;SDS011;20066;48.764;9.176;2023-04-01T17:52:19;3.65;;;1.00;;
549;SDS011;20066;48.764;9.176;2023-04-01T17:54:56;7.20;;;1.20;;
549;SDS011;20066;48.764;9.176;2023-04-01T17:57:46;2.03;;;0.70;;
549;SDS011;20066;48.764;9.176;2023-04-01T18:00:23;3.75;;;1.27;;